Terminal Aerodrome Forecast
Issued by NWS Tulsa, OK

Home | Current Version | Previous Version | Text Only | Print | Product List | Glossary On
Versions: 1 2 3 4 5 6 7 8 9 10 11 12 13 14 15 16 17 18 19 20 21 22 23 24 25 26 27 28 29 30 31 32 33 34 35 36 37 38 39 40
000
FTUS44 KTSA 191610 AAB
TAFFSM
TAF AMD
KFSM 191610Z 1916/2012 26013G18KT P6SM FEW110
     FM191800 27006KT P6SM BKN035
     FM200000 VRB03KT P6SM VCTS SCT050CB BKN250
     FM200400 VRB03KT P6SM BKN250=

USA.gov is the U.S. government's official web portal to all federal, state and local government web resources and services.